Time;durP1;ratioP1;P1;durP2;ratioP2;P2;SDS_P1;SDS_P2;PMS_P1;PMS_P2;Temp;Humidity;BMP_temperature;BMP_pressure;BME280_temperature;BME280_humidity;BME280_pressure;Samples;Min_cycle;Max_cycle;Signal;HPM_P1;HPM_P2
2021/07/26 00:00:45;0.00;0.00;0.62;0.00;0.00;0.62;8.10;7.40;;;29.90;36.30;;;;;;2265402;61;20366;-57
2021/07/26 00:03:12;0.00;0.00;0.62;0.00;0.00;0.62;7.33;6.70;;;29.90;36.40;;;;;;2265393;61;20645;-56
2021/07/26 00:05:39;0.00;0.00;0.62;0.00;0.00;0.62;7.00;6.40;;;29.80;36.40;;;;;;2264634;61;20389;-58
2021/07/26 00:08:06;0.00;0.00;0.62;0.00;0.00;0.62;7.93;7.17;;;29.80;36.50;;;;;;2265604;61;20620;-57
2021/07/26 00:10:34;0.00;0.00;0.62;0.00;0.00;0.62;7.63;6.93;;;29.70;36.50;;;;;;2266063;61;20354;-58
2021/07/26 00:13:01;0.00;0.00;0.62;0.00;0.00;0.62;7.47;6.87;;;29.70;36.60;;;;;;2265517;61;20378;-55
2021/07/26 00:15:31;0.00;0.00;0.62;0.00;0.00;0.62;7.53;6.90;;;29.60;36.50;;;;;;2266324;61;20374;-55
2021/07/26 00:17:59;0.00;0.00;0.62;0.00;0.00;0.62;7.93;7.13;;;29.60;36.60;;;;;;2266136;61;20549;-58
2021/07/26 00:20:25;0.00;0.00;0.62;0.00;0.00;0.62;7.13;6.53;;;29.60;36.60;;;;;;2265560;61;20384;-57
2021/07/26 00:22:52;0.00;0.00;0.62;0.00;0.00;0.62;7.40;6.70;;;29.60;36.60;;;;;;2266179;61;20718;-59
2021/07/26 00:25:18;0.00;0.00;0.62;0.00;0.00;0.62;7.93;7.23;;;29.50;36.70;;;;;;2266336;61;20686;-57
2021/07/26 00:27:45;0.00;0.00;0.62;0.00;0.00;0.62;8.93;6.70;;;29.50;36.70;;;;;;2265488;61;20580;-59
2021/07/26 00:30:12;0.00;0.00;0.62;0.00;0.00;0.62;7.13;6.53;;;29.50;36.70;;;;;;2266221;61;20699;-56
2021/07/26 00:32:39;0.00;0.00;0.62;0.00;0.00;0.62;6.40;5.80;;;29.50;36.70;;;;;;2266243;61;20582;-59
2021/07/26 00:35:08;0.00;0.00;0.62;0.00;0.00;0.62;7.13;6.43;;;29.60;36.80;;;;;;2265288;61;20374;-57
2021/07/26 00:37:34;0.00;0.00;0.62;0.00;0.00;0.62;7.03;6.43;;;29.50;36.80;;;;;;2266461;61;20365;-57
2021/07/26 00:40:09;0.00;0.00;0.62;0.00;0.00;0.62;7.60;7.00;;;29.50;36.80;;;;;;2265985;61;20358;-57
2021/07/26 00:42:36;0.00;0.00;0.62;0.00;0.00;0.62;7.20;6.60;;;29.50;36.80;;;;;;2265450;61;20350;-54
2021/07/26 00:45:05;0.00;0.00;0.62;0.00;0.00;0.62;6.97;6.37;;;29.50;36.80;;;;;;2266180;61;20358;-55
2021/07/26 00:47:31;0.00;0.00;0.62;0.00;0.00;0.62;7.40;5.97;;;29.50;36.80;;;;;;2266250;61;20390;-58
2021/07/26 00:49:58;0.00;0.00;0.62;0.00;0.00;0.62;6.80;6.20;;;29.50;36.80;;;;;;2265256;61;20350;-55
2021/07/26 00:52:27;0.00;0.00;0.62;0.00;0.00;0.62;6.17;5.67;;;29.50;36.80;;;;;;2266025;61;20701;-57
2021/07/26 00:54:54;0.00;0.00;0.62;0.00;0.00;0.62;6.97;6.10;;;29.50;36.90;;;;;;2262454;61;20698;-56
2021/07/26 00:57:22;0.00;0.00;0.62;0.00;0.00;0.62;5.83;5.33;;;29.60;37.00;;;;;;2265411;61;20354;-57
2021/07/26 00:59:50;0.00;0.00;0.62;0.00;0.00;0.62;6.97;6.33;;;29.60;36.90;;;;;;2265985;61;20405;-57
2021/07/26 01:02:17;0.00;0.00;0.62;0.00;0.00;0.62;7.27;6.50;;;29.60;36.90;;;;;;2266171;61;20443;-57
2021/07/26 01:04:43;0.00;0.00;0.62;0.00;0.00;0.62;7.53;6.83;;;29.60;36.90;;;;;;2258252;61;20381;-56
2021/07/26 01:07:10;0.00;0.00;0.62;0.00;0.00;0.62;8.27;6.87;;;29.60;36.90;;;;;;2266031;61;20397;-53
2021/07/26 01:09:38;0.00;0.00;0.62;0.00;0.00;0.62;7.17;6.57;;;29.60;36.90;;;;;;2266243;61;20429;-52
2021/07/26 01:12:05;0.00;0.00;0.62;0.00;0.00;0.62;7.57;6.70;;;29.60;36.90;;;;;;2265120;61;20369;-52
2021/07/26 01:14:33;0.00;0.00;0.62;0.00;0.00;0.62;7.40;6.63;;;29.60;36.90;;;;;;2266137;61;20374;-55
2021/07/26 01:17:00;0.00;0.00;0.62;0.00;0.00;0.62;6.70;6.10;;;29.60;36.90;;;;;;2266179;61;20358;-58
2021/07/26 01:19:27;0.00;0.00;0.62;0.00;0.00;0.62;8.63;6.53;;;29.60;36.90;;;;;;2265137;61;20395;-58
2021/07/26 01:21:55;0.00;0.00;0.62;0.00;0.00;0.62;6.07;5.57;;;29.50;36.90;;;;;;2265669;61;20418;-54
2021/07/26 01:24:22;0.00;0.00;0.62;0.00;0.00;0.62;7.90;7.20;;;29.50;36.90;;;;;;2266108;61;20374;-58
2021/07/26 01:26:48;0.00;0.00;0.62;0.00;0.00;0.62;7.57;6.87;;;29.60;37.00;;;;;;2265227;61;20394;-59
2021/07/26 01:29:15;0.00;0.00;0.62;0.00;0.00;0.62;8.17;7.40;;;29.60;37.00;;;;;;2266061;61;20350;-53
2021/07/26 01:31:42;0.00;0.00;0.62;0.00;0.00;0.62;7.73;7.10;;;29.60;37.00;;;;;;2262159;61;20721;-56
2021/07/26 01:34:08;0.00;0.00;0.62;0.00;0.00;0.62;8.93;8.07;;;29.50;36.90;;;;;;2265236;61;20374;-60
2021/07/26 01:36:36;0.00;0.00;0.62;0.00;0.00;0.62;8.50;7.70;;;29.50;36.90;;;;;;2262211;61;20385;-52
2021/07/26 01:39:04;0.00;0.00;0.62;0.00;0.00;0.62;7.57;6.90;;;29.50;36.90;;;;;;2265967;61;20361;-52
2021/07/26 01:41:35;0.00;0.00;0.62;0.00;0.00;0.62;8.63;7.93;;;29.50;36.90;;;;;;2265335;61;20362;-56
2021/07/26 01:44:03;0.00;0.00;0.62;0.00;0.00;0.62;8.43;7.03;;;29.40;36.90;;;;;;2266048;61;20369;-55
2021/07/26 01:46:52;0.00;0.00;0.62;0.00;0.00;0.62;7.80;7.10;;;29.40;37.00;;;;;;2262290;61;20393;-54
2021/07/26 01:49:47;0.00;0.00;0.62;0.00;0.00;0.62;7.10;6.50;;;29.40;37.00;;;;;;2265384;61;20725;-56
2021/07/26 01:52:16;0.00;0.00;0.62;0.00;0.00;0.62;6.50;5.90;;;29.40;37.10;;;;;;2265897;61;20456;-56
2021/07/26 01:54:44;0.00;0.00;0.62;0.00;0.00;0.62;7.33;6.73;;;29.40;37.10;;;;;;2265715;61;20396;-55
2021/07/26 01:57:11;0.00;0.00;0.62;0.00;0.00;0.62;6.70;6.20;;;29.30;37.10;;;;;;2265226;61;20358;-56
2021/07/26 01:59:38;0.00;0.00;0.62;0.00;0.00;0.62;7.37;6.67;;;29.30;37.10;;;;;;2265785;61;20354;-55
2021/07/26 02:02:05;0.00;0.00;0.62;0.00;0.00;0.62;6.90;6.23;;;29.30;37.10;;;;;;2265591;61;20362;-54
2021/07/26 02:04:32;0.00;0.00;0.62;0.00;0.00;0.62;6.83;6.23;;;29.40;37.20;;;;;;2265329;61;20753;-55
2021/07/26 02:06:58;0.00;0.00;0.62;0.00;0.00;0.62;7.47;6.77;;;29.40;37.20;;;;;;2266004;61;20437;-57
2021/07/26 02:09:25;0.00;0.00;0.62;0.00;0.00;0.62;7.50;6.67;;;29.40;37.20;;;;;;2265762;61;20362;-56
2021/07/26 02:11:53;0.00;0.00;0.62;0.00;0.00;0.62;7.17;6.20;;;29.40;37.20;;;;;;2265033;61;20395;-54
2021/07/26 02:14:19;0.00;0.00;0.62;0.00;0.00;0.62;7.03;6.33;;;29.40;37.20;;;;;;2265959;61;20386;-56
2021/07/26 02:16:52;0.00;0.00;0.62;0.00;0.00;0.62;7.17;6.57;;;29.40;37.10;;;;;;2265692;61;20382;-55
2021/07/26 02:19:19;0.00;0.00;0.62;0.00;0.00;0.62;6.50;5.90;;;29.40;37.20;;;;;;2265212;61;20358;-56
2021/07/26 02:21:46;0.00;0.00;0.62;0.00;0.00;0.62;6.87;6.27;;;29.30;37.10;;;;;;2265744;61;20354;-54
2021/07/26 02:24:13;0.00;0.00;0.62;0.00;0.00;0.62;7.43;6.73;;;29.30;37.10;;;;;;2265579;61;20377;-54
2021/07/26 02:26:39;0.00;0.00;0.62;0.00;0.00;0.62;6.50;5.90;;;29.40;37.30;;;;;;2265276;61;20397;-56
2021/07/26 02:29:08;0.00;0.00;0.62;0.00;0.00;0.62;6.87;6.27;;;29.40;37.30;;;;;;2262111;61;20373;-56
2021/07/26 02:31:34;0.00;0.00;0.62;0.00;0.00;0.62;7.13;6.53;;;29.40;37.30;;;;;;2265368;61;20358;-53
2021/07/26 02:34:02;0.00;0.00;0.62;0.00;0.00;0.62;6.47;5.87;;;29.40;37.30;;;;;;2265179;61;20370;-55
2021/07/26 02:36:28;0.00;0.00;0.62;0.00;0.00;0.62;6.73;6.23;;;29.40;37.30;;;;;;2265851;61;20409;-56
2021/07/26 02:38:55;0.00;0.00;0.62;0.00;0.00;0.62;7.77;6.97;;;29.40;37.30;;;;;;2265447;61;20373;-50
2021/07/26 02:41:21;0.00;0.00;0.62;0.00;0.00;0.62;7.00;6.40;;;29.40;37.30;;;;;;2265079;61;20354;-55
2021/07/26 02:43:48;0.00;0.00;0.62;0.00;0.00;0.62;6.70;6.10;;;29.30;37.30;;;;;;2265733;61;20608;-53
2021/07/26 02:46:16;0.00;0.00;0.62;0.00;0.00;0.62;6.90;6.20;;;29.40;37.30;;;;;;2265619;61;20350;-58
2021/07/26 02:48:43;0.00;0.00;0.62;0.00;0.00;0.62;6.63;6.03;;;29.40;37.40;;;;;;2265243;61;20368;-53
2021/07/26 02:51:09;0.00;0.00;0.62;0.00;0.00;0.62;6.60;6.00;;;29.40;37.30;;;;;;2265594;61;20350;-57
2021/07/26 02:53:36;0.00;0.00;0.62;0.00;0.00;0.62;6.83;6.23;;;29.30;37.30;;;;;;2265462;61;20748;-54
2021/07/26 02:56:07;0.00;0.00;0.62;0.00;0.00;0.62;6.50;5.90;;;29.30;37.30;;;;;;2261462;61;20781;-56
2021/07/26 02:58:35;0.00;0.00;0.62;0.00;0.00;0.62;5.70;5.20;;;29.30;37.20;;;;;;2265668;61;20365;-57
2021/07/26 03:01:01;0.00;0.00;0.62;0.00;0.00;0.62;6.27;5.77;;;29.40;37.30;;;;;;2265300;61;20376;-57
2021/07/26 03:03:29;0.00;0.00;0.62;0.00;0.00;0.62;7.70;6.83;;;29.40;37.30;;;;;;2265195;61;20424;-56
2021/07/26 03:05:56;0.00;0.00;0.62;0.00;0.00;0.62;6.77;6.17;;;29.40;37.30;;;;;;2265648;61;20354;-54
2021/07/26 03:08:23;0.00;0.00;0.62;0.00;0.00;0.62;7.10;6.40;;;29.40;37.30;;;;;;2265541;61;20425;-55
2021/07/26 03:10:50;0.00;0.00;0.62;0.00;0.00;0.62;7.43;6.83;;;29.40;37.30;;;;;;2265049;61;20364;-52
2021/07/26 03:13:17;0.00;0.00;0.62;0.00;0.00;0.62;7.80;6.80;;;29.30;37.20;;;;;;2265616;61;20370;-56
2021/07/26 03:15:44;0.00;0.00;0.62;0.00;0.00;0.62;10.53;7.00;;;29.30;37.30;;;;;;2265411;61;20382;-56
2021/07/26 03:18:10;0.00;0.00;0.62;0.00;0.00;0.62;8.13;7.40;;;29.30;37.30;;;;;;2265119;61;20355;-51
2021/07/26 03:20:38;0.00;0.00;0.62;0.00;0.00;0.62;8.33;7.60;;;29.20;37.30;;;;;;2265572;61;20358;-56
2021/07/26 03:23:07;0.00;0.00;0.62;0.00;0.00;0.62;8.90;8.10;;;29.20;37.50;;;;;;2265419;61;20619;-59
2021/07/26 03:25:38;0.00;0.00;0.62;0.00;0.00;0.62;7.23;6.53;;;29.10;37.40;;;;;;2265097;61;20592;-57
2021/07/26 03:28:05;0.00;0.00;0.62;0.00;0.00;0.62;8.10;7.27;;;29.10;37.50;;;;;;2265774;61;20365;-59
2021/07/26 03:30:32;0.00;0.00;0.62;0.00;0.00;0.62;9.43;8.07;;;29.00;37.50;;;;;;2265348;61;20357;-59
2021/07/26 03:32:59;0.00;0.00;0.62;0.00;0.00;0.62;10.33;8.37;;;29.00;37.60;;;;;;2264914;61;20750;-53
2021/07/26 03:35:26;0.00;0.00;0.62;0.00;0.00;0.62;8.73;7.87;;;29.00;37.70;;;;;;2265708;61;20626;-56
2021/07/26 03:37:54;0.00;0.00;0.62;0.00;0.00;0.62;9.67;8.00;;;28.90;37.70;;;;;;2265397;61;20749;-56
2021/07/26 03:40:21;0.00;0.00;0.62;0.00;0.00;0.62;8.27;7.47;;;28.90;37.80;;;;;;2264870;61;20396;-53
2021/07/26 03:42:49;0.00;0.00;0.62;0.00;0.00;0.62;10.20;7.57;;;28.80;37.80;;;;;;2265630;61;20377;-57
2021/07/26 03:45:19;0.00;0.00;0.62;0.00;0.00;0.62;8.27;7.47;;;28.80;38.00;;;;;;2266012;61;20368;-57
2021/07/26 03:47:46;0.00;0.00;0.62;0.00;0.00;0.62;7.83;7.13;;;28.70;38.00;;;;;;2265714;61;20420;-51
2021/07/26 03:50:14;0.00;0.00;0.62;0.00;0.00;0.62;8.30;7.23;;;28.70;38.10;;;;;;2266307;61;20445;-59
2021/07/26 03:52:52;0.00;0.00;0.62;0.00;0.00;0.62;8.10;7.30;;;28.60;38.10;;;;;;2266018;61;20365;-55
2021/07/26 03:55:23;0.00;0.00;0.62;0.00;0.00;0.62;8.27;7.43;;;28.60;38.20;;;;;;2265741;61;20427;-55
2021/07/26 03:57:51;0.00;0.00;0.62;0.00;0.00;0.62;9.80;7.90;;;28.50;38.90;;;;;;2266317;61;20412;-57
2021/07/26 04:00:25;0.00;0.00;0.62;0.00;0.00;0.62;8.50;7.60;;;28.50;38.30;;;;;;2265834;61;20581;-55
2021/07/26 04:03:20;0.00;0.00;0.62;0.00;0.00;0.62;12.00;8.33;;;28.40;38.40;;;;;;2265701;61;20370;-52
2021/07/26 04:05:56;0.00;0.00;0.62;0.00;0.00;0.62;8.47;7.40;;;28.40;38.30;;;;;;2266228;61;20353;-55
2021/07/26 04:08:30;0.00;0.00;0.62;0.00;0.00;0.62;9.90;7.82;;;28.40;38.30;;;;;;2265861;61;20365;-51
2021/07/26 04:11:06;0.00;0.00;0.62;0.00;0.00;0.62;8.13;7.33;;;28.40;38.40;;;;;;2265795;61;20267;-57
2021/07/26 04:13:35;0.00;0.00;0.62;0.00;0.00;0.62;8.87;7.20;;;28.30;38.40;;;;;;2266205;61;20460;-58
2021/07/26 04:16:02;0.00;0.00;0.62;0.00;0.00;0.62;11.50;7.07;;;28.30;38.50;;;;;;2266100;61;20381;-56
2021/07/26 04:18:29;0.00;0.00;0.62;0.00;0.00;0.62;18.30;8.13;;;28.30;38.60;;;;;;2265684;61;20397;-54
2021/07/26 04:20:56;0.00;0.00;0.62;0.00;0.00;0.62;10.97;6.90;;;28.30;38.60;;;;;;2265985;61;20362;-58
2021/07/26 04:23:23;0.00;0.00;0.62;0.00;0.00;0.62;18.93;8.70;;;28.30;38.70;;;;;;2266041;61;20460;-54
2021/07/26 04:25:51;0.00;0.00;0.62;0.00;0.00;0.62;9.77;7.43;;;28.20;38.80;;;;;;2265706;61;20357;-56
2021/07/26 04:28:19;0.00;0.00;0.62;0.00;0.00;0.62;9.13;6.83;;;28.20;38.80;;;;;;2266248;61;20691;-58
2021/07/26 04:30:46;0.00;0.00;0.62;0.00;0.00;0.62;19.00;7.53;;;28.20;38.80;;;;;;2265959;61;20445;-56
2021/07/26 04:33:12;0.00;0.00;0.62;0.00;0.00;0.62;9.07;6.73;;;28.10;38.80;;;;;;2265617;61;20592;-56
2021/07/26 04:35:39;0.00;0.00;0.62;0.00;0.00;0.62;13.17;7.60;;;28.10;38.70;;;;;;2266139;61;20409;-56
2021/07/26 04:38:05;0.00;0.00;0.62;0.00;0.00;0.62;9.40;7.50;;;28.10;38.80;;;;;;2265985;61;20572;-57
2021/07/26 04:40:32;0.00;0.00;0.62;0.00;0.00;0.62;6.60;5.90;;;28.10;38.80;;;;;;2265447;61;20350;-56
2021/07/26 04:42:59;0.00;0.00;0.62;0.00;0.00;0.62;9.67;6.10;;;28.10;38.90;;;;;;2266120;61;20377;-59
2021/07/26 04:45:27;0.00;0.00;0.62;0.00;0.00;0.62;9.03;6.77;;;28.10;38.90;;;;;;2266014;61;20351;-59
2021/07/26 04:47:54;0.00;0.00;0.62;0.00;0.00;0.62;7.80;7.00;;;28.10;38.90;;;;;;2265523;61;20358;-53
2021/07/26 04:50:20;0.00;0.00;0.62;0.00;0.00;0.62;11.10;7.13;;;28.10;38.90;;;;;;2266155;61;20498;-59
2021/07/26 04:52:47;0.00;0.00;0.62;0.00;0.00;0.62;8.37;7.47;;;28.10;38.90;;;;;;2265851;61;20386;-57
2021/07/26 04:55:14;0.00;0.00;0.62;0.00;0.00;0.62;9.60;7.60;;;28.10;39.70;;;;;;2265467;61;20753;-57
2021/07/26 04:57:41;0.00;0.00;0.62;0.00;0.00;0.62;8.27;7.47;;;28.20;39.00;;;;;;2266216;61;20350;-56
2021/07/26 05:00:09;0.00;0.00;0.62;0.00;0.00;0.62;8.30;6.57;;;28.10;38.90;;;;;;2265692;61;20434;-53
2021/07/26 05:02:38;0.00;0.00;0.62;0.00;0.00;0.62;9.37;6.70;;;28.10;38.90;;;;;;2265356;61;20360;-57
2021/07/26 05:05:06;0.00;0.00;0.62;0.00;0.00;0.62;7.70;7.00;;;28.10;39.00;;;;;;2266180;61;20358;-54
2021/07/26 05:07:33;0.00;0.00;0.62;0.00;0.00;0.62;6.83;6.13;;;28.10;39.00;;;;;;2265991;61;20354;-58
2021/07/26 05:10:00;0.00;0.00;0.62;0.00;0.00;0.62;7.60;6.77;;;28.10;39.00;;;;;;2261677;61;20362;-57
2021/07/26 05:12:27;0.00;0.00;0.62;0.00;0.00;0.62;6.97;6.27;;;28.10;39.00;;;;;;2266091;61;20364;-58
2021/07/26 05:14:54;0.00;0.00;0.62;0.00;0.00;0.62;6.60;5.90;;;28.10;38.90;;;;;;2265697;61;20605;-58
2021/07/26 05:17:26;0.00;0.00;0.62;0.00;0.00;0.62;6.20;5.33;;;28.00;38.80;;;;;;2261632;61;20687;-60
2021/07/26 05:19:55;0.00;0.00;0.62;0.00;0.00;0.62;6.03;5.53;;;28.00;38.80;;;;;;2265949;61;20399;-57
2021/07/26 05:22:23;0.00;0.00;0.62;0.00;0.00;0.62;7.27;5.80;;;28.00;38.70;;;;;;2263888;55;20967;-58
2021/07/26 05:24:50;0.00;0.00;0.62;0.00;0.00;0.62;9.00;5.73;;;28.00;38.70;;;;;;2265702;61;20713;-58
2021/07/26 05:27:17;0.00;0.00;0.62;0.00;0.00;0.62;6.17;5.57;;;27.90;38.80;;;;;;2266209;61;20358;-55
2021/07/26 05:29:44;0.00;0.00;0.62;0.00;0.00;0.62;6.23;5.00;;;27.90;38.80;;;;;;2265339;61;20572;-59
2021/07/26 05:32:11;0.00;0.00;0.62;0.00;0.00;0.62;6.07;5.50;;;27.90;38.80;;;;;;2265639;61;20619;-59
2021/07/26 05:34:38;0.00;0.00;0.62;0.00;0.00;0.62;6.30;5.10;;;27.90;38.90;;;;;;2266130;61;20374;-60
2021/07/26 05:37:06;0.00;0.00;0.62;0.00;0.00;0.62;7.60;6.03;;;27.90;38.90;;;;;;2265203;61;20433;-60
2021/07/26 05:39:33;0.00;0.00;0.62;0.00;0.00;0.62;6.60;5.70;;;27.90;39.00;;;;;;2265711;61;20400;-56
2021/07/26 05:42:00;0.00;0.00;0.62;0.00;0.00;0.62;8.90;5.13;;;27.90;38.90;;;;;;2265950;61;20361;-57
2021/07/26 05:44:27;0.00;0.00;0.62;0.00;0.00;0.62;6.17;4.90;;;27.80;38.90;;;;;;2265283;61;20796;-60
2021/07/26 05:46:54;0.00;0.00;0.62;0.00;0.00;0.62;8.43;6.00;;;27.80;39.00;;;;;;2265690;61;20354;-58
2021/07/26 05:49:21;0.00;0.00;0.62;0.00;0.00;0.62;7.10;5.47;;;27.80;39.00;;;;;;2266156;61;20419;-59
2021/07/26 05:51:47;0.00;0.00;0.62;0.00;0.00;0.62;7.53;5.50;;;27.80;39.10;;;;;;2265126;61;20361;-56
2021/07/26 05:54:15;0.00;0.00;0.62;0.00;0.00;0.62;8.00;5.30;;;27.80;39.10;;;;;;2265737;61;20732;-58
2021/07/26 05:56:43;0.00;0.00;0.62;0.00;0.00;0.62;7.20;5.90;;;27.80;39.10;;;;;;2266101;61;20608;-56
2021/07/26 05:59:09;0.00;0.00;0.62;0.00;0.00;0.62;7.80;5.70;;;27.80;39.10;;;;;;2264964;61;20354;-58
2021/07/26 06:01:46;0.00;0.00;0.62;0.00;0.00;0.62;8.20;5.90;;;27.80;39.10;;;;;;2265652;61;20409;-59
2021/07/26 06:04:15;0.00;0.00;0.62;0.00;0.00;0.62;7.00;5.50;;;27.80;39.20;;;;;;2265988;61;20423;-54
2021/07/26 06:06:45;0.00;0.00;0.62;0.00;0.00;0.62;6.70;4.93;;;27.80;39.20;;;;;;2264964;61;20663;-60
2021/07/26 06:09:12;0.00;0.00;0.62;0.00;0.00;0.62;10.27;5.90;;;27.80;39.30;;;;;;2265963;61;20437;-59
2021/07/26 06:11:42;0.00;0.00;0.62;0.00;0.00;0.62;7.40;5.57;;;27.70;39.30;;;;;;2265833;61;20364;-56
2021/07/26 06:14:10;0.00;0.00;0.62;0.00;0.00;0.62;6.67;5.90;;;27.70;39.30;;;;;;2265202;61;20413;-60
2021/07/26 06:16:42;0.00;0.00;0.62;0.00;0.00;0.62;8.10;5.87;;;27.70;39.30;;;;;;2265739;61;20423;-56
2021/07/26 06:19:10;0.00;0.00;0.62;0.00;0.00;0.62;7.10;6.10;;;27.70;39.40;;;;;;2265323;61;20354;-60
2021/07/26 06:21:41;0.00;0.00;0.62;0.00;0.00;0.62;7.83;5.67;;;27.70;39.50;;;;;;2265061;61;20354;-60
2021/07/26 06:24:08;0.00;0.00;0.62;0.00;0.00;0.62;8.30;6.07;;;27.70;39.60;;;;;;2265604;61;20374;-58
2021/07/26 06:26:34;0.00;0.00;0.62;0.00;0.00;0.62;8.90;5.73;;;27.70;39.60;;;;;;2265852;61;20358;-57
2021/07/26 06:29:04;0.00;0.00;0.62;0.00;0.00;0.62;6.73;5.37;;;27.70;39.70;;;;;;2265147;61;20737;-53
2021/07/26 06:31:32;0.00;0.00;0.62;0.00;0.00;0.62;8.17;6.20;;;27.70;39.70;;;;;;2265620;61;20358;-53
2021/07/26 06:33:59;0.00;0.00;0.62;0.00;0.00;0.62;8.90;5.30;;;27.70;39.80;;;;;;2265643;61;20401;-56
2021/07/26 06:36:26;0.00;0.00;0.62;0.00;0.00;0.62;9.23;4.90;;;27.70;39.70;;;;;;2265261;61;20729;-55
2021/07/26 06:38:52;0.00;0.00;0.62;0.00;0.00;0.62;8.03;5.37;;;27.70;39.80;;;;;;2265503;61;20350;-58
2021/07/26 06:41:19;0.00;0.00;0.62;0.00;0.00;0.62;6.93;4.63;;;27.70;39.70;;;;;;2265570;61;20363;-57
2021/07/26 06:43:46;0.00;0.00;0.62;0.00;0.00;0.62;5.50;5.00;;;27.70;39.70;;;;;;2265212;61;20378;-61
2021/07/26 06:46:14;0.00;0.00;0.62;0.00;0.00;0.62;10.13;5.30;;;27.70;39.70;;;;;;2265704;61;20606;-60
2021/07/26 06:48:41;0.00;0.00;0.62;0.00;0.00;0.62;5.03;4.53;;;27.70;39.70;;;;;;2265791;61;20365;-61
2021/07/26 06:51:07;0.00;0.00;0.62;0.00;0.00;0.62;7.67;4.73;;;27.70;39.70;;;;;;2265110;61;20439;-56
2021/07/26 06:53:34;0.00;0.00;0.62;0.00;0.00;0.62;5.93;5.17;;;27.70;39.70;;;;;;2265023;61;20385;-64
2021/07/26 06:56:04;0.00;0.00;0.62;0.00;0.00;0.62;4.67;4.27;;;27.70;39.70;;;;;;2265607;61;20374;-55
2021/07/26 06:58:30;0.00;0.00;0.62;0.00;0.00;0.62;5.80;4.37;;;27.70;39.50;;;;;;2265145;61;20807;-59
2021/07/26 07:01:02;0.00;0.00;0.62;0.00;0.00;0.62;6.43;4.40;;;27.70;39.50;;;;;;2265539;61;20354;-49
2021/07/26 07:03:30;0.00;0.00;0.62;0.00;0.00;0.62;4.50;4.10;;;27.70;39.40;;;;;;2265579;61;20639;-57
2021/07/26 07:06:01;0.00;0.00;0.62;0.00;0.00;0.62;5.30;4.30;;;27.70;40.10;;;;;;2265018;61;20354;-57
2021/07/26 07:08:28;0.00;0.00;0.62;0.00;0.00;0.62;5.37;4.10;;;27.70;39.40;;;;;;2265622;61;20352;-57
2021/07/26 07:11:03;0.00;0.00;0.62;0.00;0.00;0.62;4.50;3.80;;;27.70;39.50;;;;;;2265067;61;20368;-58
2021/07/26 07:13:30;0.00;0.00;0.62;0.00;0.00;0.62;5.93;5.33;;;27.70;39.40;;;;;;2265029;61;20481;-58
2021/07/26 07:15:56;0.00;0.00;0.62;0.00;0.00;0.62;8.40;4.10;;;27.70;39.40;;;;;;2265467;61;20393;-59
2021/07/26 07:18:23;0.00;0.00;0.62;0.00;0.00;0.62;5.07;4.00;;;27.70;39.30;;;;;;2265641;61;20728;-58
2021/07/26 07:20:51;0.00;0.00;0.62;0.00;0.00;0.62;7.40;4.50;;;27.70;39.30;;;;;;2264973;61;20358;-62
2021/07/26 07:23:17;0.00;0.00;0.62;0.00;0.00;0.62;6.80;4.77;;;27.70;39.40;;;;;;2265382;61;20645;-57
2021/07/26 07:25:44;0.00;0.00;0.62;0.00;0.00;0.62;4.77;4.30;;;27.70;39.40;;;;;;2265711;61;20352;-57
2021/07/26 07:28:10;0.00;0.00;0.62;0.00;0.00;0.62;6.53;4.50;;;27.80;39.40;;;;;;2265078;61;20365;-55
2021/07/26 07:30:37;0.00;0.00;0.62;0.00;0.00;0.62;4.20;3.80;;;27.80;39.30;;;;;;2265329;61;20408;-53
2021/07/26 07:33:04;0.00;0.00;0.62;0.00;0.00;0.62;5.07;3.93;;;27.80;39.30;;;;;;2265586;61;20420;-57
2021/07/26 07:35:30;0.00;0.00;0.62;0.00;0.00;0.62;10.60;4.53;;;27.80;39.20;;;;;;2265022;61;20428;-56
2021/07/26 07:37:58;0.00;0.00;0.62;0.00;0.00;0.62;4.87;4.37;;;27.80;39.20;;;;;;2265398;61;20619;-59
2021/07/26 07:40:25;0.00;0.00;0.62;0.00;0.00;0.62;4.90;4.00;;;27.80;39.20;;;;;;2265619;61;20563;-59
2021/07/26 07:42:53;0.00;0.00;0.62;0.00;0.00;0.62;4.70;4.00;;;27.80;39.20;;;;;;2265045;61;20370;-58
2021/07/26 07:45:19;0.00;0.00;0.62;0.00;0.00;0.62;4.53;4.03;;;27.90;39.30;;;;;;2265341;61;20360;-58
2021/07/26 07:47:46;0.00;0.00;0.62;0.00;0.00;0.62;5.37;4.10;;;27.90;39.30;;;;;;2265616;61;20579;-52
2021/07/26 07:50:15;0.00;0.00;0.62;0.00;0.00;0.62;3.80;3.50;;;27.90;39.30;;;;;;2264958;61;20354;-56
2021/07/26 07:52:42;0.00;0.00;0.62;0.00;0.00;0.62;4.40;3.67;;;28.00;39.20;;;;;;2265301;61;20613;-58
2021/07/26 07:55:11;0.00;0.00;0.62;0.00;0.00;0.62;4.27;3.80;;;28.00;39.10;;;;;;2265726;61;20368;-54
2021/07/26 07:57:38;0.00;0.00;0.62;0.00;0.00;0.62;4.03;3.63;;;28.00;39.10;;;;;;2264999;61;20362;-57
2021/07/26 08:00:12;0.00;0.00;0.62;0.00;0.00;0.62;5.00;3.83;;;28.00;39.10;;;;;;2264958;61;20463;-59
2021/07/26 08:02:38;0.00;0.00;0.62;0.00;0.00;0.62;3.50;3.20;;;28.00;39.00;;;;;;2265707;61;20757;-56
2021/07/26 08:05:05;0.00;0.00;0.62;0.00;0.00;0.62;5.40;3.50;;;28.00;39.00;;;;;;2265037;61;20593;-56
2021/07/26 08:07:33;0.00;0.00;0.62;0.00;0.00;0.62;6.10;3.87;;;28.10;39.00;;;;;;2265295;61;20506;-58
2021/07/26 08:10:00;0.00;0.00;0.62;0.00;0.00;0.62;3.90;3.57;;;28.10;38.90;;;;;;2265527;61;20358;-57
2021/07/26 08:12:28;0.00;0.00;0.62;0.00;0.00;0.62;7.33;3.80;;;28.10;38.80;;;;;;2264936;61;20659;-54
2021/07/26 08:14:55;0.00;0.00;0.62;0.00;0.00;0.62;3.87;3.30;;;28.20;38.70;;;;;;2264769;61;20377;-57
2021/07/26 08:17:22;0.00;0.00;0.62;0.00;0.00;0.62;4.37;3.93;;;28.20;38.60;;;;;;2262014;61;20358;-59
2021/07/26 08:19:48;0.00;0.00;0.62;0.00;0.00;0.62;4.80;4.10;;;28.20;38.60;;;;;;2264671;61;20381;-56
2021/07/26 08:22:15;0.00;0.00;0.62;0.00;0.00;0.62;4.63;4.23;;;28.30;38.60;;;;;;2265112;61;20478;-59
2021/07/26 08:24:42;0.00;0.00;0.62;0.00;0.00;0.62;3.90;3.37;;;28.30;38.50;;;;;;2265689;61;20385;-60
2021/07/26 08:27:08;0.00;0.00;0.62;0.00;0.00;0.62;4.20;3.60;;;28.30;38.40;;;;;;2264731;61;20346;-60
2021/07/26 08:29:36;0.00;0.00;0.62;0.00;0.00;0.62;4.53;4.10;;;28.30;38.30;;;;;;2265286;61;20688;-59
2021/07/26 08:32:03;0.00;0.00;0.62;0.00;0.00;0.62;4.83;4.33;;;28.30;38.30;;;;;;2266140;61;20358;-58
2021/07/26 08:34:30;0.00;0.00;0.62;0.00;0.00;0.62;4.53;4.07;;;28.30;38.20;;;;;;2265403;61;20458;-60
2021/07/26 08:36:59;0.00;0.00;0.62;0.00;0.00;0.62;4.37;3.97;;;28.40;38.20;;;;;;2266145;61;20392;-57
2021/07/26 08:39:25;0.00;0.00;0.62;0.00;0.00;0.62;4.30;3.77;;;28.40;38.10;;;;;;2266395;61;20364;-55
2021/07/26 08:41:52;0.00;0.00;0.62;0.00;0.00;0.62;4.13;3.73;;;28.40;38.20;;;;;;2265141;61;20354;-56
2021/07/26 08:44:19;0.00;0.00;0.62;0.00;0.00;0.62;5.20;4.17;;;28.40;38.10;;;;;;2266132;61;20385;-59
2021/07/26 08:46:51;0.00;0.00;0.62;0.00;0.00;0.62;5.00;3.83;;;28.50;38.20;;;;;;2266199;61;20353;-58
2021/07/26 08:49:19;0.00;0.00;0.62;0.00;0.00;0.62;4.40;4.00;;;28.50;38.10;;;;;;2265398;61;20369;-57
2021/07/26 08:51:49;0.00;0.00;0.62;0.00;0.00;0.62;4.83;3.80;;;28.50;38.10;;;;;;2265424;61;20354;-58
2021/07/26 08:54:16;0.00;0.00;0.62;0.00;0.00;0.62;4.40;3.57;;;28.60;38.00;;;;;;2266139;61;20370;-56
2021/07/26 08:56:43;0.00;0.00;0.62;0.00;0.00;0.62;4.40;4.00;;;28.60;38.10;;;;;;2265321;61;20467;-59
2021/07/26 08:59:10;0.00;0.00;0.62;0.00;0.00;0.62;4.10;3.73;;;28.60;38.00;;;;;;2265882;61;20350;-59
2021/07/26 09:01:37;0.00;0.00;0.62;0.00;0.00;0.62;4.00;3.60;;;28.60;38.00;;;;;;2266197;61;20582;-56
2021/07/26 09:04:05;0.00;0.00;0.62;0.00;0.00;0.62;5.87;3.87;;;28.70;37.80;;;;;;2264843;61;20409;-59
2021/07/26 09:06:32;0.00;0.00;0.62;0.00;0.00;0.62;4.53;3.57;;;28.70;37.80;;;;;;2266052;61;20385;-59
2021/07/26 09:08:58;0.00;0.00;0.62;0.00;0.00;0.62;4.90;3.80;;;28.70;37.60;;;;;;2266234;61;20577;-62
2021/07/26 09:11:25;0.00;0.00;0.62;0.00;0.00;0.62;3.13;2.83;;;28.70;37.30;;;;;;2265301;61;20346;-59
2021/07/26 09:13:52;0.00;0.00;0.62;0.00;0.00;0.62;3.87;3.43;;;28.70;37.20;;;;;;2266002;61;20460;-61
2021/07/26 09:16:20;0.00;0.00;0.62;0.00;0.00;0.62;5.77;3.77;;;28.80;37.20;;;;;;2266098;61;20468;-58
2021/07/26 09:18:59;0.00;0.00;0.62;0.00;0.00;0.62;3.40;3.10;;;28.80;37.00;;;;;;2265386;61;20350;-61
2021/07/26 09:21:52;0.00;0.00;0.62;0.00;0.00;0.62;4.13;3.70;;;28.80;36.90;;;;;;2265741;61;20376;-55
2021/07/26 09:24:25;0.00;0.00;0.62;0.00;0.00;0.62;4.13;3.63;;;28.80;36.70;;;;;;2265925;61;20749;-60
2021/07/26 09:26:51;0.00;0.00;0.62;0.00;0.00;0.62;3.83;3.40;;;28.80;36.30;;;;;;2265572;61;20350;-57
2021/07/26 09:29:26;0.00;0.00;0.62;0.00;0.00;0.62;3.97;3.57;;;28.90;36.40;;;;;;2265991;61;20357;-57
2021/07/26 09:31:57;0.00;0.00;0.62;0.00;0.00;0.62;3.37;3.07;;;28.90;36.30;;;;;;2265755;61;20384;-59
2021/07/26 09:34:24;0.00;0.00;0.62;0.00;0.00;0.62;5.53;3.37;;;28.90;36.30;;;;;;2265394;61;20748;-59
2021/07/26 09:36:52;0.00;0.00;0.62;0.00;0.00;0.62;4.57;3.20;;;29.00;36.50;;;;;;2265939;61;20408;-60
2021/07/26 09:39:27;0.00;0.00;0.62;0.00;0.00;0.62;3.50;3.20;;;29.00;36.20;;;;;;2265989;61;20394;-56
2021/07/26 09:41:56;0.00;0.00;0.62;0.00;0.00;0.62;3.57;3.27;;;29.00;36.10;;;;;;2264588;61;20757;-57
2021/07/26 09:44:24;0.00;0.00;0.62;0.00;0.00;0.62;4.43;3.20;;;29.00;36.10;;;;;;2265801;61;20417;-65